createdAt,value
2022-09-15T00:01:02.614Z,96.50
2022-09-15T00:03:29.901Z,97.50
2022-09-15T00:05:57.230Z,98.20
2022-09-15T00:08:24.649Z,98.50
2022-09-15T00:10:58.593Z,98.70
2022-09-15T00:13:26.280Z,98.90
2022-09-15T00:15:54.190Z,98.90
2022-09-15T00:18:21.601Z,99.20
2022-09-15T00:20:48.817Z,99.30
2022-09-15T00:23:17.608Z,99.70
2022-09-15T00:25:47.444Z,99.70
2022-09-15T00:28:16.198Z,99.90
2022-09-15T00:30:45.302Z,99.90
2022-09-15T00:33:14.433Z,99.90
2022-09-15T00:35:45.674Z,99.90
2022-09-15T00:38:15.023Z,99.90
2022-09-15T00:40:54.331Z,99.90
2022-09-15T00:43:43.027Z,99.90
2022-09-15T00:46:11.341Z,99.90
2022-09-15T00:48:44.506Z,99.90
2022-09-15T00:51:17.376Z,99.90
2022-09-15T00:53:46.936Z,99.90
2022-09-15T00:56:16.164Z,99.90
2022-09-15T00:59:07.660Z,99.90
2022-09-15T01:01:35.876Z,99.90
2022-09-15T01:04:03.190Z,99.90
2022-09-15T01:06:39.527Z,99.90
2022-09-15T01:09:21.856Z,99.90
2022-09-15T01:11:49.992Z,99.90
2022-09-15T01:14:17.352Z,99.90
2022-09-15T01:17:04.150Z,99.90
2022-09-15T01:19:53.162Z,99.90
2022-09-15T01:22:34.133Z,99.90
2022-09-15T01:25:17.498Z,99.90
2022-09-15T01:28:04.947Z,99.90
2022-09-15T01:30:42.906Z,99.90
2022-09-15T01:33:20.967Z,99.90
2022-09-15T01:35:54.231Z,99.90
2022-09-15T01:38:27.010Z,99.90
2022-09-15T01:41:00.346Z,99.90
2022-09-15T01:43:29.835Z,99.90
2022-09-15T01:45:58.294Z,99.90
2022-09-15T01:48:27.514Z,99.90
2022-09-15T01:50:59.961Z,99.90
2022-09-15T01:53:28.156Z,99.90
2022-09-15T01:56:10.233Z,99.90
2022-09-15T01:58:39.496Z,99.90
2022-09-15T02:01:43.895Z,99.90
2022-09-15T02:04:40.785Z,99.90
2022-09-15T02:07:36.183Z,99.90
2022-09-15T02:10:14.889Z,99.90
2022-09-15T02:12:52.465Z,99.90
2022-09-15T02:15:29.423Z,99.90
2022-09-15T02:17:58.145Z,99.90
2022-09-15T02:20:39.956Z,99.90
2022-09-15T02:23:17.798Z,99.90
2022-09-15T02:25:51.880Z,99.90
2022-09-15T02:28:24.322Z,99.90
2022-09-15T02:30:56.781Z,99.90
2022-09-15T02:33:30.673Z,99.90
2022-09-15T02:35:58.668Z,99.90
2022-09-15T02:38:30.506Z,99.90
2022-09-15T02:40:58.927Z,99.90
2022-09-15T02:43:28.028Z,99.90
2022-09-15T02:45:56.018Z,99.90
2022-09-15T02:48:23.770Z,99.90
2022-09-15T02:50:51.906Z,99.90
2022-09-15T02:53:18.864Z,99.90
2022-09-15T02:55:46.913Z,99.90
2022-09-15T02:58:14.382Z,99.90
2022-09-15T03:00:43.177Z,99.90
2022-09-15T03:03:11.467Z,99.90
2022-09-15T03:05:46.078Z,99.90
2022-09-15T03:08:13.263Z,99.90
2022-09-15T03:10:41.179Z,99.90
2022-09-15T03:13:09.015Z,99.90
2022-09-15T03:15:37.488Z,99.90
2022-09-15T03:18:05.052Z,99.90
2022-09-15T03:20:32.158Z,99.90
2022-09-15T03:22:59.042Z,99.90
2022-09-15T03:25:26.940Z,99.90
2022-09-15T03:27:53.962Z,99.90
2022-09-15T03:30:20.798Z,99.90
2022-09-15T03:32:48.719Z,99.90
2022-09-15T03:35:15.517Z,99.90
2022-09-15T03:37:42.282Z,99.90
2022-09-15T03:40:10.801Z,99.90
2022-09-15T03:42:37.650Z,99.90
2022-09-15T03:45:04.968Z,99.90
2022-09-15T03:47:32.699Z,99.90
2022-09-15T03:50:00.038Z,99.90
2022-09-15T03:52:31.413Z,99.90
2022-09-15T03:54:58.279Z,99.90
2022-09-15T03:57:25.001Z,99.90
2022-09-15T03:59:51.725Z,99.90
2022-09-15T04:02:19.263Z,99.90
2022-09-15T04:04:45.998Z,99.90
2022-09-15T04:07:12.724Z,99.90
2022-09-15T04:09:39.557Z,99.90
2022-09-15T04:12:06.858Z,99.90
2022-09-15T04:14:33.615Z,99.90
2022-09-15T04:17:00.392Z,99.90
2022-09-15T04:19:27.278Z,99.90
2022-09-15T04:21:54.057Z,99.90
2022-09-15T04:24:20.799Z,99.90
2022-09-15T04:26:47.523Z,99.90
2022-09-15T04:29:16.415Z,99.90
2022-09-15T04:31:43.456Z,99.90
2022-09-15T04:34:10.375Z,99.90
2022-09-15T04:36:37.190Z,99.90
2022-09-15T04:39:05.375Z,99.50
2022-09-15T04:41:33.580Z,99.70
2022-09-15T04:44:00.832Z,99.60
2022-09-15T04:46:27.647Z,99.20
2022-09-15T04:48:56.805Z,98.40
2022-09-15T04:51:24.299Z,98.60
2022-09-15T04:53:52.098Z,98.40
2022-09-15T04:56:22.036Z,98.70
2022-09-15T04:58:54.109Z,98.50
2022-09-15T05:01:30.322Z,98.40
2022-09-15T05:03:57.443Z,98.50
2022-09-15T05:06:26.901Z,98.50
2022-09-15T05:08:56.626Z,98.50
2022-09-15T05:11:25.077Z,98.60
2022-09-15T05:13:51.923Z,98.60
2022-09-15T05:16:22.272Z,98.80
2022-09-15T05:18:50.936Z,99.00
2022-09-15T05:21:19.888Z,99.50
2022-09-15T05:23:47.139Z,99.80
2022-09-15T05:26:17.189Z,99.90
2022-09-15T05:28:44.890Z,99.90
2022-09-15T05:31:21.698Z,99.90
2022-09-15T05:33:50.010Z,99.90
2022-09-15T05:36:19.249Z,99.90
2022-09-15T05:38:46.284Z,99.90
2022-09-15T05:41:19.145Z,99.80
2022-09-15T05:43:47.421Z,99.20
2022-09-15T05:46:15.369Z,98.50
2022-09-15T05:48:42.193Z,98.80
2022-09-15T05:51:09.132Z,98.20
2022-09-15T05:53:36.757Z,98.30
2022-09-15T05:56:10.258Z,98.30
2022-09-15T05:58:40.255Z,97.20
2022-09-15T06:01:16.649Z,96.70
2022-09-15T06:03:43.899Z,97.10
2022-09-15T06:06:10.675Z,96.30
2022-09-15T06:08:43.754Z,96.40
2022-09-15T06:11:16.842Z,96.00
2022-09-15T06:13:44.670Z,96.00
2022-09-15T06:16:19.348Z,95.80
2022-09-15T06:18:48.528Z,94.80
2022-09-15T06:21:24.113Z,94.70
2022-09-15T06:24:07.247Z,94.70
2022-09-15T06:26:34.692Z,94.70
2022-09-15T06:29:03.586Z,94.50
2022-09-15T06:31:32.406Z,94.10
2022-09-15T06:34:00.537Z,94.30
2022-09-15T06:36:29.754Z,94.50
2022-09-15T06:38:57.067Z,94.10
2022-09-15T06:41:24.706Z,94.00
2022-09-15T06:43:52.164Z,94.00
2022-09-15T06:46:22.073Z,94.20
2022-09-15T06:48:49.337Z,94.10
2022-09-15T06:51:17.863Z,94.20
2022-09-15T06:53:45.540Z,94.30
2022-09-15T06:56:14.563Z,94.30
2022-09-15T06:58:43.150Z,94.60
2022-09-15T07:01:19.007Z,94.50
2022-09-15T07:03:46.007Z,94.00
2022-09-15T07:06:13.055Z,93.70
2022-09-15T07:08:40.903Z,93.40
2022-09-15T07:11:08.504Z,93.60
2022-09-15T07:13:35.543Z,92.90
2022-09-15T07:16:04.633Z,92.20
2022-09-15T07:18:32.578Z,92.20
2022-09-15T07:21:12.292Z,92.10
2022-09-15T07:23:39.890Z,92.10
2022-09-15T07:26:19.975Z,92.00
2022-09-15T07:28:51.937Z,92.10
2022-09-15T07:31:21.065Z,92.00
2022-09-15T07:33:48.371Z,91.90
2022-09-15T07:36:15.636Z,92.00
2022-09-15T07:38:48.122Z,91.80
2022-09-15T07:41:18.962Z,91.80
2022-09-15T07:43:57.591Z,92.00
2022-09-15T07:46:25.976Z,91.70
2022-09-15T07:48:56.645Z,91.70
2022-09-15T07:51:24.870Z,91.60
2022-09-15T07:53:52.709Z,91.50
2022-09-15T07:56:20.470Z,91.30
2022-09-15T07:58:48.628Z,90.90
2022-09-15T08:01:16.928Z,90.90
2022-09-15T08:03:46.406Z,91.10
2022-09-15T08:06:13.713Z,90.70
2022-09-15T08:08:43.977Z,90.80
2022-09-15T08:11:18.429Z,90.80
2022-09-15T08:13:50.362Z,90.80
2022-09-15T08:16:20.793Z,90.60
2022-09-15T08:18:48.297Z,90.50
2022-09-15T08:21:17.805Z,90.60
2022-09-15T08:23:44.974Z,90.20
2022-09-15T08:26:14.387Z,90.20
2022-09-15T08:28:41.988Z,89.00
2022-09-15T08:31:11.524Z,89.50
2022-09-15T08:33:43.210Z,89.30
2022-09-15T08:36:12.368Z,89.30
2022-09-15T08:38:44.429Z,88.10
2022-09-15T08:41:42.855Z,87.50
2022-09-15T08:44:30.755Z,87.60
2022-09-15T08:47:12.513Z,86.80
2022-09-15T08:49:54.956Z,87.00
2022-09-15T08:52:40.190Z,86.40
2022-09-15T08:55:26.420Z,85.70
2022-09-15T08:57:54.004Z,85.60
2022-09-15T09:00:20.839Z,85.60
2022-09-15T09:03:06.528Z,85.80
2022-09-15T09:05:49.550Z,85.40
2022-09-15T09:08:51.824Z,84.40
2022-09-15T09:11:57.028Z,84.70
2022-09-15T09:14:49.521Z,84.70
2022-09-15T09:17:35.096Z,84.40
2022-09-15T09:20:13.898Z,84.70
2022-09-15T09:22:43.739Z,85.00
2022-09-15T09:25:26.668Z,84.80
2022-09-15T09:27:54.253Z,84.30
2022-09-15T09:30:23.275Z,84.50
2022-09-15T09:33:30.282Z,84.20
2022-09-15T09:36:02.383Z,84.40
2022-09-15T09:38:34.500Z,84.40
2022-09-15T09:41:04.733Z,84.30
2022-09-15T09:43:32.720Z,84.30
2022-09-15T09:45:59.883Z,84.30
2022-09-15T09:48:28.293Z,83.10
2022-09-15T09:50:55.320Z,83.20
2022-09-15T09:53:26.047Z,82.60
2022-09-15T09:55:55.275Z,81.80
2022-09-15T09:58:25.770Z,80.60
2022-09-15T10:00:53.202Z,80.70
2022-09-15T10:03:23.053Z,80.70
2022-09-15T10:06:11.507Z,81.60
2022-09-15T10:08:52.249Z,80.60
2022-09-15T10:11:19.160Z,80.80
2022-09-15T10:13:56.451Z,81.00
2022-09-15T10:16:23.483Z,81.00
2022-09-15T10:18:54.186Z,80.00
2022-09-15T10:21:24.890Z,80.50
2022-09-15T10:23:51.969Z,80.40
2022-09-15T10:26:29.436Z,80.40
2022-09-15T10:29:17.075Z,80.70
2022-09-15T10:31:45.442Z,81.20
2022-09-15T10:34:31.945Z,80.90
2022-09-15T10:37:33.792Z,81.20
2022-09-15T10:40:10.660Z,81.20
2022-09-15T10:42:46.477Z,81.40
2022-09-15T10:45:33.800Z,81.90
2022-09-15T10:48:56.414Z,81.10
2022-09-15T10:52:01.349Z,81.60
2022-09-15T10:55:05.084Z,80.30
2022-09-15T10:57:34.609Z,79.30
2022-09-15T11:00:09.851Z,79.00
2022-09-15T11:02:58.244Z,78.80
2022-09-15T11:05:52.209Z,79.40
2022-09-15T11:08:47.898Z,79.30
2022-09-15T11:11:37.948Z,80.40
2022-09-15T11:14:14.824Z,82.50
2022-09-15T11:17:04.997Z,82.10
2022-09-15T11:19:37.884Z,82.30
2022-09-15T11:22:09.217Z,82.10
2022-09-15T11:24:45.888Z,81.30
2022-09-15T11:27:31.358Z,80.20
2022-09-15T11:30:25.565Z,79.50
2022-09-15T11:32:58.101Z,80.40
2022-09-15T11:36:03.133Z,79.80
2022-09-15T11:38:59.963Z,79.60
2022-09-15T11:41:41.767Z,80.30
2022-09-15T11:44:31.168Z,79.80
2022-09-15T11:47:24.634Z,78.90
2022-09-15T11:50:00.493Z,78.30
2022-09-15T11:52:36.117Z,77.00
2022-09-15T11:55:24.691Z,77.10
2022-09-15T11:58:05.530Z,76.30
2022-09-15T12:00:34.894Z,73.70
2022-09-15T12:03:37.304Z,75.00
2022-09-15T12:06:20.231Z,75.40
2022-09-15T12:08:53.336Z,75.70
2022-09-15T12:11:23.132Z,74.90
2022-09-15T12:13:50.634Z,77.00
2022-09-15T12:16:18.780Z,76.00
2022-09-15T12:18:51.456Z,76.30
2022-09-15T12:21:36.212Z,75.80
2022-09-15T12:24:11.090Z,76.60
2022-09-15T12:26:38.634Z,75.30
2022-09-15T12:29:27.926Z,75.10
2022-09-15T12:32:18.195Z,75.20
2022-09-15T12:35:15.684Z,75.30
2022-09-15T12:37:47.995Z,76.20
2022-09-15T12:40:37.473Z,75.70
2022-09-15T12:43:25.644Z,76.30
2022-09-15T12:46:00.915Z,76.40
2022-09-15T12:48:36.660Z,76.20
2022-09-15T12:51:06.795Z,77.00
2022-09-15T12:53:55.857Z,77.60
2022-09-15T12:56:28.380Z,77.80
2022-09-15T12:58:55.935Z,77.30
2022-09-15T13:01:22.882Z,77.10
2022-09-15T13:03:49.691Z,76.20
2022-09-15T13:06:19.565Z,76.40
2022-09-15T13:09:03.638Z,75.30
2022-09-15T13:11:34.736Z,76.00
2022-09-15T13:14:06.865Z,76.40
2022-09-15T13:16:48.681Z,75.80
2022-09-15T13:19:33.354Z,74.90
2022-09-15T13:22:12.325Z,72.80
2022-09-15T13:25:01.400Z,71.70
2022-09-15T13:27:33.202Z,71.10
2022-09-15T13:30:21.453Z,71.00
2022-09-15T13:33:26.021Z,77.40
2022-09-15T13:35:52.718Z,83.60
2022-09-15T13:38:37.128Z,86.00
2022-09-15T13:41:06.628Z,87.80
2022-09-15T13:43:45.539Z,89.70
2022-09-15T13:46:23.152Z,90.20
2022-09-15T13:49:24.798Z,90.50
2022-09-15T13:52:14.203Z,91.00
2022-09-15T13:55:17.195Z,91.30
2022-09-15T14:00:45.437Z,91.20
2022-09-15T14:03:17.377Z,90.10
2022-09-15T14:05:45.275Z,90.60
2022-09-15T14:08:17.635Z,89.30
2022-09-15T14:10:52.877Z,88.50
2022-09-15T14:13:22.615Z,88.50
2022-09-15T14:16:23.806Z,88.60
2022-09-15T14:18:53.080Z,87.00
2022-09-15T14:21:25.684Z,87.90
2022-09-15T14:23:55.074Z,87.80
2022-09-15T14:26:27.686Z,87.20
2022-09-15T14:28:58.846Z,87.20
2022-09-15T14:31:34.160Z,86.50
2022-09-15T14:34:06.783Z,86.30
2022-09-15T14:36:35.150Z,85.80
2022-09-15T14:39:12.782Z,85.60
2022-09-15T14:41:42.785Z,85.10
2022-09-15T14:47:27.915Z,84.20
2022-09-15T14:50:19.697Z,84.40
2022-09-15T14:53:06.271Z,84.50
2022-09-15T14:55:37.607Z,84.60
2022-09-15T14:58:16.037Z,84.40
2022-09-15T15:01:02.215Z,84.70
2022-09-15T15:03:36.820Z,84.60
2022-09-15T15:06:28.816Z,84.60
2022-09-15T15:09:25.919Z,85.20
2022-09-15T15:11:58.198Z,86.00
2022-09-15T15:14:25.560Z,87.60
2022-09-15T15:17:05.839Z,88.30
2022-09-15T15:19:39.443Z,89.20
2022-09-15T15:22:11.984Z,90.00
2022-09-15T15:24:46.103Z,90.80
2022-09-15T15:27:26.440Z,91.50
2022-09-15T15:29:53.224Z,91.80
2022-09-15T15:32:27.417Z,93.10
2022-09-15T15:35:04.041Z,93.10
2022-09-15T15:37:32.894Z,93.70
2022-09-15T15:40:07.913Z,94.10
2022-09-15T15:42:34.825Z,95.40
2022-09-15T15:45:24.042Z,95.60
2022-09-15T15:47:51.030Z,95.80
2022-09-15T15:50:27.334Z,95.70
2022-09-15T15:52:54.600Z,95.00
2022-09-15T15:55:24.112Z,95.50
2022-09-15T15:57:53.318Z,94.60
2022-09-15T16:00:51.165Z,94.10
2022-09-15T16:03:19.409Z,93.20
2022-09-15T16:05:59.379Z,92.60
2022-09-15T16:08:31.767Z,92.90
2022-09-15T16:11:00.661Z,92.20
2022-09-15T16:13:27.616Z,91.10
2022-09-15T16:15:57.851Z,91.50
2022-09-15T16:18:24.972Z,91.70
2022-09-15T16:20:52.249Z,91.80
2022-09-15T16:23:21.591Z,91.90
2022-09-15T16:26:01.505Z,91.90
2022-09-15T16:28:31.892Z,92.10
2022-09-15T16:30:59.427Z,92.20
2022-09-15T16:33:26.616Z,92.30
2022-09-15T16:35:56.098Z,92.40
2022-09-15T16:38:25.856Z,92.40
2022-09-15T16:40:52.715Z,92.70
2022-09-15T16:43:22.520Z,92.70
2022-09-15T16:45:50.550Z,92.80
2022-09-15T16:48:17.771Z,93.20
2022-09-15T16:51:01.704Z,93.40
2022-09-15T16:53:32.684Z,93.80
2022-09-15T16:55:59.459Z,94.00
2022-09-15T16:58:26.373Z,94.20
2022-09-15T17:00:53.177Z,94.50
2022-09-15T17:03:24.779Z,94.70
2022-09-15T17:05:56.265Z,95.00
2022-09-15T17:08:27.230Z,95.40
2022-09-15T17:10:56.718Z,95.60
2022-09-15T17:13:27.866Z,95.80
2022-09-15T17:15:57.837Z,96.10
2022-09-15T17:18:24.898Z,96.40
2022-09-15T17:20:52.108Z,96.70
2022-09-15T17:23:36.763Z,96.30
2022-09-15T17:26:30.442Z,96.30
2022-09-15T17:28:58.299Z,97.10
2022-09-15T17:31:25.215Z,97.20
2022-09-15T17:33:52.623Z,97.80
2022-09-15T17:36:19.464Z,98.20
2022-09-15T17:38:48.719Z,98.50
2022-09-15T17:41:18.109Z,98.80
2022-09-15T17:43:45.162Z,99.40
2022-09-15T17:46:12.236Z,99.90
2022-09-15T17:48:39.296Z,99.90
2022-09-15T17:51:07.649Z,99.90
2022-09-15T17:53:34.788Z,99.90
2022-09-15T17:56:01.785Z,99.90
2022-09-15T17:58:31.272Z,99.90
2022-09-15T18:00:59.112Z,99.90
2022-09-15T18:03:35.013Z,99.90
2022-09-15T18:06:05.269Z,99.90
2022-09-15T18:08:35.901Z,99.90
2022-09-15T18:11:03.838Z,99.90
2022-09-15T18:13:31.278Z,99.90
2022-09-15T18:16:04.031Z,99.90
2022-09-15T18:18:30.841Z,99.90
2022-09-15T18:20:58.380Z,96.50
2022-09-15T18:23:28.361Z,95.50
2022-09-15T18:25:55.720Z,94.10
2022-09-15T18:28:22.553Z,93.40
2022-09-15T18:30:50.605Z,93.30
2022-09-15T18:33:22.451Z,93.40
2022-09-15T18:35:51.546Z,93.40
2022-09-15T18:38:19.149Z,93.20
2022-09-15T18:40:49.015Z,93.80
2022-09-15T18:43:16.887Z,94.00
2022-09-15T18:45:43.761Z,94.50
2022-09-15T18:48:13.171Z,94.90
2022-09-15T18:50:41.427Z,95.60
2022-09-15T18:53:08.414Z,96.40
2022-09-15T18:55:35.257Z,97.00
2022-09-15T18:58:02.649Z,97.50
2022-09-15T19:00:29.968Z,97.90
2022-09-15T19:03:01.910Z,98.50
2022-09-15T19:05:30.093Z,98.70
2022-09-15T19:07:57.054Z,99.60
2022-09-15T19:10:26.719Z,99.80
2022-09-15T19:12:54.265Z,99.90
2022-09-15T19:15:23.746Z,99.90
2022-09-15T19:17:51.207Z,99.90
2022-09-15T19:20:18.623Z,99.90
2022-09-15T19:22:46.090Z,99.90
2022-09-15T19:25:13.478Z,99.90
2022-09-15T19:27:41.216Z,99.90
2022-09-15T19:30:10.053Z,99.90
2022-09-15T19:32:38.293Z,99.90
2022-09-15T19:35:05.778Z,99.90
2022-09-15T19:37:37.468Z,99.90
2022-09-15T19:40:08.584Z,99.90
2022-09-15T19:42:36.511Z,99.90
2022-09-15T19:45:03.590Z,99.90
2022-09-15T19:47:30.774Z,99.90
2022-09-15T19:49:57.911Z,99.90
2022-09-15T19:52:24.734Z,99.90
2022-09-15T19:54:51.682Z,99.90
2022-09-15T19:57:18.733Z,99.80
2022-09-15T19:59:45.561Z,99.60
2022-09-15T20:02:12.577Z,99.20
2022-09-15T20:04:40.327Z,99.10
2022-09-15T20:07:07.876Z,99.10
2022-09-15T20:09:35.077Z,99.30
2022-09-15T20:12:03.351Z,99.50
2022-09-15T20:14:31.244Z,99.80
2022-09-15T20:17:00.993Z,99.90
2022-09-15T20:19:28.600Z,99.90
2022-09-15T20:21:55.860Z,99.90
2022-09-15T20:24:24.603Z,99.90
2022-09-15T20:26:51.878Z,99.90
2022-09-15T20:29:19.398Z,99.90
2022-09-15T20:31:47.016Z,99.90
2022-09-15T20:34:13.772Z,99.90
2022-09-15T20:36:40.896Z,99.90
2022-09-15T20:39:12.918Z,99.90
2022-09-15T20:41:41.123Z,99.90
2022-09-15T20:44:10.932Z,99.90
2022-09-15T20:46:37.850Z,99.90
2022-09-15T20:49:04.946Z,99.90
2022-09-15T20:51:33.530Z,99.90
2022-09-15T20:54:02.102Z,99.90
2022-09-15T20:56:30.851Z,99.90
2022-09-15T20:58:59.297Z,99.90
2022-09-15T21:01:32.890Z,99.90
2022-09-15T21:04:00.009Z,99.90
2022-09-15T21:06:28.358Z,99.90
2022-09-15T21:08:56.787Z,99.90
2022-09-15T21:11:26.346Z,99.90
2022-09-15T21:13:54.276Z,99.90
2022-09-15T21:16:24.155Z,99.90
2022-09-15T21:18:51.513Z,99.90
2022-09-15T21:21:19.682Z,99.90
2022-09-15T21:23:52.409Z,99.90
2022-09-15T21:26:24.178Z,99.90
2022-09-15T21:28:51.750Z,99.90
2022-09-15T21:31:32.803Z,99.90
2022-09-15T21:33:59.932Z,99.90
2022-09-15T21:36:29.564Z,99.90
2022-09-15T21:38:58.219Z,99.90
2022-09-15T21:41:28.152Z,99.90
2022-09-15T21:43:56.262Z,99.90
2022-09-15T21:46:25.462Z,99.90
2022-09-15T21:48:52.297Z,99.90
2022-09-15T21:51:24.501Z,99.90
2022-09-15T21:53:54.598Z,99.90
2022-09-15T21:56:22.558Z,99.90
2022-09-15T21:58:49.336Z,99.90
2022-09-15T22:01:22.162Z,99.90
2022-09-15T22:04:06.227Z,99.90
2022-09-15T22:06:40.300Z,99.90
2022-09-15T22:09:14.631Z,99.90
2022-09-15T22:11:41.919Z,99.90
2022-09-15T22:14:09.724Z,99.90
2022-09-15T22:16:38.827Z,99.90
2022-09-15T22:19:07.146Z,99.90
2022-09-15T22:21:36.866Z,99.90
2022-09-15T22:24:05.731Z,99.90
2022-09-15T22:26:34.608Z,99.90
2022-09-15T22:29:02.259Z,99.90
2022-09-15T22:31:30.205Z,99.90
2022-09-15T22:33:57.572Z,99.90
2022-09-15T22:36:30.421Z,99.90
2022-09-15T22:39:06.022Z,99.90
2022-09-15T22:41:35.712Z,99.90
2022-09-15T22:44:03.608Z,99.90
2022-09-15T22:46:30.870Z,99.90
2022-09-15T22:48:58.012Z,99.90
2022-09-15T22:51:24.813Z,99.90
2022-09-15T22:53:56.699Z,99.90
2022-09-15T22:56:24.171Z,99.90
2022-09-15T22:58:51.035Z,99.90
2022-09-15T23:01:20.223Z,99.90
2022-09-15T23:03:55.712Z,99.90
2022-09-15T23:06:23.257Z,99.90
2022-09-15T23:08:54.704Z,99.90
2022-09-15T23:11:22.137Z,99.90
2022-09-15T23:13:49.370Z,99.90
2022-09-15T23:16:17.100Z,99.90
2022-09-15T23:18:44.758Z,99.90
2022-09-15T23:21:12.980Z,99.90
2022-09-15T23:23:41.613Z,99.90
2022-09-15T23:26:10.784Z,99.90
2022-09-15T23:28:39.238Z,99.90
2022-09-15T23:31:06.946Z,99.90
2022-09-15T23:33:34.344Z,99.90
2022-09-15T23:36:02.468Z,99.90
2022-09-15T23:38:29.459Z,99.90
2022-09-15T23:40:56.293Z,99.90
2022-09-15T23:43:23.066Z,99.90
2022-09-15T23:45:51.238Z,99.90
2022-09-15T23:48:18.096Z,99.90
2022-09-15T23:50:44.927Z,99.90
2022-09-15T23:53:12.594Z,99.90
2022-09-15T23:55:39.398Z,99.90
2022-09-15T23:58:06.453Z,99.90
